createdAt,value
2022-12-05T00:01:32.146Z,13.75
2022-12-05T00:04:00.571Z,12.20
2022-12-05T00:06:29.244Z,14.30
2022-12-05T00:08:56.963Z,13.60
2022-12-05T00:11:32.594Z,13.50
2022-12-05T00:14:01.451Z,12.98
2022-12-05T00:16:30.477Z,12.85
2022-12-05T00:19:00.598Z,13.80
2022-12-05T00:21:29.298Z,12.90
2022-12-05T00:23:57.677Z,14.07
2022-12-05T00:26:25.131Z,12.82
2022-12-05T00:28:52.457Z,12.63
2022-12-05T00:31:21.658Z,14.13
2022-12-05T00:33:49.033Z,12.85
2022-12-05T00:36:22.251Z,13.10
2022-12-05T00:38:49.214Z,13.25
2022-12-05T00:41:18.219Z,13.13
2022-12-05T00:43:45.263Z,12.98
2022-12-05T00:46:15.533Z,12.70
2022-12-05T00:48:42.661Z,11.85
2022-12-05T00:51:15.558Z,12.68
2022-12-05T00:53:43.409Z,13.55
2022-12-05T00:56:12.597Z,13.73
2022-12-05T00:58:39.731Z,12.90
2022-12-05T01:01:19.094Z,12.80
2022-12-05T01:03:46.627Z,13.32
2022-12-05T01:06:14.812Z,12.38
2022-12-05T01:08:41.918Z,12.00
2022-12-05T01:11:10.465Z,11.95
2022-12-05T01:13:37.786Z,12.63
2022-12-05T01:16:04.858Z,11.20
2022-12-05T01:18:31.909Z,10.93
2022-12-05T01:20:58.675Z,12.10
2022-12-05T01:23:25.417Z,12.20
2022-12-05T01:25:52.535Z,13.00
2022-12-05T01:28:19.583Z,12.60
2022-12-05T01:30:49.056Z,11.68
2022-12-05T01:33:17.607Z,13.13
2022-12-05T01:35:44.959Z,13.23
2022-12-05T01:38:13.443Z,12.57
2022-12-05T01:40:40.637Z,12.65
2022-12-05T01:43:15.958Z,11.82
2022-12-05T01:45:45.568Z,12.95
2022-12-05T01:48:32.495Z,13.63
2022-12-05T01:51:00.494Z,13.05
2022-12-05T01:53:28.571Z,13.10
2022-12-05T01:55:56.059Z,13.90
2022-12-05T01:58:29.571Z,14.30
2022-12-05T02:00:56.291Z,13.57
2022-12-05T02:03:23.677Z,13.30
2022-12-05T02:05:54.024Z,14.50
2022-12-05T02:08:21.412Z,14.02
2022-12-05T02:10:52.015Z,14.60
2022-12-05T02:13:27.502Z,14.18
2022-12-05T02:15:57.088Z,13.55
2022-12-05T02:18:53.090Z,14.20
2022-12-05T02:21:49.399Z,14.70
2022-12-05T02:24:46.923Z,16.05
2022-12-05T02:27:22.690Z,15.02
2022-12-05T02:30:05.567Z,15.48
2022-12-05T02:32:38.654Z,14.52
2022-12-05T02:35:37.190Z,15.38
2022-12-05T02:38:22.081Z,13.50
2022-12-05T02:41:14.556Z,13.45
2022-12-05T02:43:50.330Z,14.65
2022-12-05T02:46:22.078Z,14.40
2022-12-05T02:48:53.403Z,16.25
2022-12-05T02:51:23.467Z,15.27
2022-12-05T02:53:51.405Z,14.50
2022-12-05T02:56:19.333Z,16.65
2022-12-05T02:58:54.467Z,14.50
2022-12-05T03:01:27.312Z,15.15
2022-12-05T03:03:55.563Z,13.73
2022-12-05T03:06:36.110Z,15.27
2022-12-05T03:09:06.758Z,17.65
2022-12-05T03:11:56.318Z,15.95
2022-12-05T03:14:27.057Z,15.80
2022-12-05T03:16:58.114Z,17.00
2022-12-05T03:19:40.245Z,15.00
2022-12-05T03:22:16.191Z,15.32
2022-12-05T03:24:43.044Z,16.30
2022-12-05T03:27:49.591Z,13.40
2022-12-05T03:30:22.135Z,15.23
2022-12-05T03:33:19.122Z,14.75
2022-12-05T03:36:00.388Z,14.00
2022-12-05T03:38:30.073Z,13.82
2022-12-05T03:41:20.004Z,15.10
2022-12-05T03:44:00.749Z,15.00
2022-12-05T03:46:56.395Z,14.50
2022-12-05T03:49:36.462Z,13.07
2022-12-05T03:52:24.542Z,15.20
2022-12-05T03:54:59.525Z,13.60
2022-12-05T03:57:31.451Z,15.15
2022-12-05T04:00:11.529Z,14.60
2022-12-05T04:02:45.494Z,16.45
2022-12-05T04:05:22.400Z,15.73
2022-12-05T04:08:03.666Z,16.02
2022-12-05T04:10:48.309Z,14.70
2022-12-05T04:13:43.636Z,15.00
2022-12-05T04:16:52.397Z,14.50
2022-12-05T04:19:27.780Z,13.80
2022-12-05T04:21:56.662Z,14.05
2022-12-05T04:24:47.435Z,15.07
2022-12-05T04:27:27.891Z,17.40
2022-12-05T04:30:06.444Z,15.40
2022-12-05T04:32:45.520Z,15.00
2022-12-05T04:35:28.968Z,14.27
2022-12-05T04:38:02.366Z,15.48
2022-12-05T04:40:38.379Z,16.85
2022-12-05T04:43:06.858Z,14.10
2022-12-05T04:45:35.549Z,15.38
2022-12-05T04:48:11.646Z,14.93
2022-12-05T04:50:39.715Z,15.20
2022-12-05T04:53:09.581Z,16.30
2022-12-05T04:55:39.546Z,17.67
2022-12-05T04:58:12.433Z,17.33
2022-12-05T05:00:47.417Z,16.00
2022-12-05T05:03:49.396Z,15.30
2022-12-05T05:06:16.626Z,14.05
2022-12-05T05:08:51.772Z,14.23
2022-12-05T05:11:25.282Z,14.98
2022-12-05T05:13:52.642Z,14.10
2022-12-05T05:16:28.083Z,15.38
2022-12-05T05:18:55.563Z,14.95
2022-12-05T05:21:26.696Z,15.27
2022-12-05T05:23:53.632Z,13.00
2022-12-05T05:26:20.805Z,13.63
2022-12-05T05:28:48.783Z,13.27
2022-12-05T05:31:16.834Z,13.80
2022-12-05T05:33:43.711Z,13.25
2022-12-05T05:36:13.356Z,13.90
2022-12-05T05:38:43.646Z,17.85
2022-12-05T05:41:17.663Z,15.00
2022-12-05T05:43:44.956Z,14.07
2022-12-05T05:46:12.949Z,14.05
2022-12-05T05:48:39.914Z,14.00
2022-12-05T05:51:08.711Z,13.95
2022-12-05T05:53:35.991Z,13.05
2022-12-05T05:56:07.927Z,13.65
2022-12-05T05:58:35.516Z,14.65
2022-12-05T06:01:06.967Z,14.50
2022-12-05T06:03:34.020Z,13.52
2022-12-05T06:06:03.931Z,14.05
2022-12-05T06:08:31.705Z,13.50
2022-12-05T06:10:58.536Z,14.00
2022-12-05T06:13:25.629Z,14.40
2022-12-05T06:15:52.516Z,11.60
2022-12-05T06:18:19.308Z,12.73
2022-12-05T06:20:53.706Z,14.32
2022-12-05T06:23:20.762Z,13.75
2022-12-05T06:25:52.230Z,15.52
2022-12-05T06:28:19.765Z,15.30
2022-12-05T06:30:46.391Z,33.38
2022-12-05T06:33:13.727Z,32.40
2022-12-05T06:35:41.063Z,25.45
2022-12-05T06:38:07.912Z,17.90
2022-12-05T06:40:35.109Z,16.33
2022-12-05T06:43:01.770Z,23.27
2022-12-05T06:45:28.614Z,15.95
2022-12-05T06:47:55.470Z,13.65
2022-12-05T06:50:22.230Z,14.13
2022-12-05T06:52:50.514Z,14.10
2022-12-05T06:55:17.594Z,15.55
2022-12-05T06:57:44.258Z,12.65
2022-12-05T07:00:30.534Z,14.40
2022-12-05T07:02:57.225Z,15.30
2022-12-05T07:05:23.995Z,13.52
2022-12-05T07:07:50.833Z,15.43
2022-12-05T07:10:17.613Z,15.50
2022-12-05T07:12:44.312Z,16.67
2022-12-05T07:15:11.107Z,14.80
2022-12-05T07:17:38.818Z,17.10
2022-12-05T07:20:07.232Z,16.08
2022-12-05T07:22:36.790Z,20.48
2022-12-05T07:25:04.407Z,17.95
2022-12-05T07:27:31.370Z,21.42
2022-12-05T07:29:58.230Z,18.13
2022-12-05T07:32:25.354Z,18.65
2022-12-05T07:34:55.310Z,13.50
2022-12-05T07:37:22.614Z,14.85
2022-12-05T07:39:49.352Z,21.73
2022-12-05T07:42:16.041Z,19.83
2022-12-05T07:44:42.704Z,18.73
2022-12-05T07:47:09.373Z,17.40
2022-12-05T07:49:36.895Z,16.42
2022-12-05T07:52:03.707Z,15.73
2022-12-05T07:54:30.542Z,17.73
2022-12-05T07:56:57.188Z,17.55
2022-12-05T07:59:23.886Z,19.27
2022-12-05T08:01:50.698Z,16.75
2022-12-05T08:04:17.837Z,16.67
2022-12-05T08:06:44.537Z,17.67
2022-12-05T08:09:11.593Z,17.17
2022-12-05T08:11:38.253Z,15.48
2022-12-05T08:14:06.066Z,18.55
2022-12-05T08:16:33.096Z,18.13
2022-12-05T08:19:06.422Z,16.75
2022-12-05T08:21:33.223Z,16.65
2022-12-05T08:23:59.925Z,17.08
2022-12-05T08:26:29.674Z,16.30
2022-12-05T08:29:08.223Z,17.02
2022-12-05T08:31:39.887Z,15.55
2022-12-05T08:34:06.620Z,17.15
2022-12-05T08:36:33.608Z,15.90
2022-12-05T08:39:06.178Z,15.98
2022-12-05T08:41:34.272Z,15.10
2022-12-05T08:44:06.420Z,15.20
2022-12-05T08:46:34.977Z,15.32
2022-12-05T08:49:02.574Z,16.65
2022-12-05T08:51:29.292Z,13.85
2022-12-05T08:53:56.490Z,14.25
2022-12-05T08:56:27.176Z,13.70
2022-12-05T08:58:58.504Z,13.23
2022-12-05T09:01:39.349Z,13.88
2022-12-05T09:04:10.289Z,14.18
2022-12-05T09:06:39.090Z,14.20
2022-12-05T09:09:08.162Z,13.30
2022-12-05T09:11:53.749Z,14.57
2022-12-05T09:14:20.592Z,14.68
2022-12-05T09:16:47.997Z,13.75
2022-12-05T09:19:24.902Z,14.00
2022-12-05T09:21:51.866Z,12.13
2022-12-05T09:24:18.695Z,13.27
2022-12-05T09:26:45.955Z,13.30
2022-12-05T09:29:17.277Z,14.55
2022-12-05T09:31:47.052Z,12.25
2022-12-05T09:34:15.186Z,13.25
2022-12-05T09:36:42.492Z,13.00
2022-12-05T09:39:10.318Z,13.27
2022-12-05T09:42:04.760Z,12.65
2022-12-05T09:44:59.451Z,12.80
2022-12-05T09:47:57.958Z,12.05
2022-12-05T09:50:26.703Z,13.10
2022-12-05T09:53:30.691Z,13.68
2022-12-05T09:56:09.553Z,13.55
2022-12-05T09:58:51.035Z,13.70
2022-12-05T10:01:50.740Z,13.95
2022-12-05T10:04:35.702Z,12.60
2022-12-05T10:07:37.753Z,14.77
2022-12-05T10:10:23.536Z,13.35
2022-12-05T10:13:14.349Z,13.10
2022-12-05T10:15:57.147Z,12.63
2022-12-05T10:18:42.873Z,12.30
2022-12-05T10:21:09.711Z,12.68
2022-12-05T10:23:58.359Z,12.35
2022-12-05T10:26:33.695Z,13.60
2022-12-05T10:29:15.127Z,13.13
2022-12-05T10:31:44.954Z,14.13
2022-12-05T10:34:39.879Z,13.10
2022-12-05T10:37:17.640Z,12.85
2022-12-05T10:39:45.276Z,13.30
2022-12-05T10:42:31.679Z,12.85
2022-12-05T10:45:04.888Z,14.90
2022-12-05T10:47:33.153Z,12.43
2022-12-05T10:50:07.924Z,12.18
2022-12-05T10:52:35.522Z,13.40
2022-12-05T10:55:08.187Z,12.40
2022-12-05T10:57:34.852Z,11.55
2022-12-05T11:00:16.011Z,11.18
2022-12-05T11:02:45.842Z,11.25
2022-12-05T11:05:12.611Z,12.35
2022-12-05T11:07:49.503Z,12.98
2022-12-05T11:10:31.331Z,12.43
2022-12-05T11:12:59.516Z,12.38
2022-12-05T11:15:31.599Z,11.88
2022-12-05T11:18:16.773Z,11.43
2022-12-05T11:20:43.493Z,11.30
2022-12-05T11:23:36.339Z,11.50
2022-12-05T11:26:03.526Z,12.32
2022-12-05T11:28:36.695Z,13.35
2022-12-05T11:31:19.578Z,12.43
2022-12-05T11:34:02.213Z,12.73
2022-12-05T11:36:46.573Z,12.25
2022-12-05T11:39:14.187Z,11.80
2022-12-05T11:42:00.311Z,12.55
2022-12-05T11:44:26.951Z,11.52
2022-12-05T11:47:12.645Z,12.00
2022-12-05T11:49:57.704Z,12.85
2022-12-05T11:52:34.694Z,12.15
2022-12-05T11:55:40.338Z,13.05
2022-12-05T11:58:28.307Z,12.30
2022-12-05T12:01:01.268Z,12.50
2022-12-05T12:03:46.032Z,11.93
2022-12-05T12:06:47.394Z,12.25
2022-12-05T12:09:29.124Z,12.73
2022-12-05T12:12:00.781Z,13.07
2022-12-05T12:14:41.230Z,12.80
2022-12-05T12:17:38.877Z,13.13
2022-12-05T12:20:34.980Z,13.38
2022-12-05T12:23:13.937Z,12.75
2022-12-05T12:26:04.268Z,12.55
2022-12-05T12:29:12.737Z,12.35
2022-12-05T12:32:17.310Z,12.30
2022-12-05T12:35:21.605Z,11.48
2022-12-05T12:38:17.283Z,11.68
2022-12-05T12:40:43.905Z,11.18
2022-12-05T12:47:01.173Z,11.25
2022-12-05T12:49:53.798Z,12.02
2022-12-05T12:52:27.951Z,11.10
2022-12-05T12:55:27.099Z,11.38
2022-12-05T12:58:18.011Z,11.13
2022-12-05T13:01:23.295Z,10.65
2022-12-05T13:04:12.700Z,10.80
2022-12-05T13:07:12.795Z,9.85
2022-12-05T13:09:51.785Z,9.95
2022-12-05T13:12:28.164Z,11.50
2022-12-05T13:15:14.932Z,13.30
2022-12-05T13:17:45.611Z,11.80
2022-12-05T13:20:34.014Z,15.07
2022-12-05T13:23:07.654Z,14.75
2022-12-05T13:25:39.050Z,16.23
2022-12-05T13:28:09.870Z,16.77
2022-12-05T13:30:56.660Z,13.15
2022-12-05T13:33:26.455Z,12.80
2022-12-05T13:36:22.331Z,10.45
2022-12-05T13:39:07.781Z,8.25
2022-12-05T13:42:04.801Z,17.52
2022-12-05T13:44:37.102Z,13.07
2022-12-05T13:47:07.459Z,6.97
2022-12-05T13:49:46.423Z,6.82
2022-12-05T13:52:22.190Z,6.65
2022-12-05T13:54:57.921Z,6.90
2022-12-05T13:57:39.665Z,7.03
2022-12-05T14:00:10.130Z,7.80
2022-12-05T14:02:46.523Z,7.13
2022-12-05T14:05:19.122Z,5.47
2022-12-05T14:07:57.439Z,6.93
2022-12-05T14:10:29.523Z,6.28
2022-12-05T14:13:15.362Z,6.05
2022-12-05T14:15:45.636Z,9.88
2022-12-05T14:18:15.490Z,52.42
2022-12-05T14:21:03.139Z,9.40
2022-12-05T14:23:51.746Z,5.72
2022-12-05T14:26:56.804Z,6.03
2022-12-05T14:29:38.366Z,6.70
2022-12-05T14:32:19.763Z,5.20
2022-12-05T14:35:09.687Z,4.90
2022-12-05T14:37:44.421Z,6.80
2022-12-05T14:40:32.319Z,4.55
2022-12-05T14:43:20.104Z,6.05
2022-12-05T14:45:53.113Z,4.60
2022-12-05T14:48:52.371Z,5.28
2022-12-05T14:51:31.159Z,4.82
2022-12-05T14:54:06.072Z,4.32
2022-12-05T14:56:40.043Z,5.75
2022-12-05T14:59:24.849Z,6.78
2022-12-05T15:01:59.032Z,9.05
2022-12-05T15:04:35.012Z,6.85
2022-12-05T15:07:08.364Z,5.68
2022-12-05T15:09:50.210Z,4.30
2022-12-05T15:12:24.222Z,4.63
2022-12-05T15:15:09.134Z,4.97
2022-12-05T15:17:45.634Z,4.63
2022-12-05T15:20:17.555Z,4.50
2022-12-05T15:22:44.373Z,5.30
2022-12-05T15:25:31.850Z,5.75
2022-12-05T15:28:04.995Z,16.58
2022-12-05T15:30:34.610Z,8.73
2022-12-05T15:33:01.780Z,5.47
2022-12-05T15:35:32.957Z,6.05
2022-12-05T15:38:09.384Z,4.72
2022-12-05T15:40:39.295Z,5.40
2022-12-05T15:43:28.973Z,4.95
2022-12-05T15:46:20.144Z,5.07
2022-12-05T15:48:47.159Z,4.47
2022-12-05T15:51:14.299Z,4.57
2022-12-05T15:53:57.195Z,5.43
2022-12-05T15:56:35.680Z,5.18
2022-12-05T15:59:11.917Z,5.43
2022-12-05T16:01:47.097Z,5.65
2022-12-05T16:04:23.662Z,6.07
2022-12-05T16:06:56.079Z,18.83
2022-12-05T16:09:31.252Z,16.85
2022-12-05T16:12:04.547Z,11.93
2022-12-05T16:17:25.731Z,17.67
2022-12-05T16:19:52.557Z,9.65
2022-12-05T16:22:25.277Z,10.40
2022-12-05T16:25:01.044Z,7.90
2022-12-05T16:27:35.930Z,8.52
2022-12-05T16:30:17.827Z,6.65
2022-12-05T16:32:45.789Z,7.57
2022-12-05T16:35:32.965Z,6.72
2022-12-05T16:38:20.608Z,6.65
2022-12-05T16:40:49.997Z,7.00
2022-12-05T16:43:22.812Z,6.13
2022-12-05T16:45:50.861Z,4.90
2022-12-05T16:48:23.650Z,12.25
2022-12-05T16:50:52.653Z,7.30
2022-12-05T16:53:22.653Z,18.48
2022-12-05T16:55:49.881Z,5.95
2022-12-05T16:58:27.645Z,4.38
2022-12-05T17:01:05.274Z,9.15
2022-12-05T17:03:35.132Z,44.95
2022-12-05T17:06:02.408Z,26.48
2022-12-05T17:08:29.408Z,12.32
2022-12-05T17:10:56.307Z,11.77
2022-12-05T17:13:22.938Z,11.18
2022-12-05T17:15:49.823Z,10.25
2022-12-05T17:18:20.507Z,5.72
2022-12-05T17:20:51.693Z,5.88
2022-12-05T17:23:18.635Z,5.30
2022-12-05T17:25:56.422Z,5.00
2022-12-05T17:28:24.130Z,5.22
2022-12-05T17:30:51.666Z,6.70
2022-12-05T17:33:19.355Z,6.20
2022-12-05T17:35:46.880Z,5.68
2022-12-05T17:38:14.187Z,5.63
2022-12-05T17:40:41.239Z,5.97
2022-12-05T17:43:13.637Z,6.50
2022-12-05T17:45:41.011Z,6.93
2022-12-05T17:48:13.654Z,4.93
2022-12-05T17:50:46.870Z,5.00
2022-12-05T17:53:16.015Z,4.72
2022-12-05T17:55:43.636Z,4.20
2022-12-05T17:58:10.931Z,2.90
2022-12-05T18:00:37.771Z,3.10
2022-12-05T18:03:04.627Z,2.35
2022-12-05T18:05:31.343Z,3.97
2022-12-05T18:07:58.171Z,3.83
2022-12-05T18:10:24.992Z,2.58
2022-12-05T18:12:51.699Z,4.82
2022-12-05T18:15:18.555Z,2.78
2022-12-05T18:17:45.387Z,2.40
2022-12-05T18:20:14.182Z,3.00
2022-12-05T18:22:41.282Z,2.20
2022-12-05T18:25:08.968Z,2.20
2022-12-05T18:27:36.668Z,3.33
2022-12-05T18:30:04.819Z,3.10
2022-12-05T18:32:31.559Z,7.38
2022-12-05T18:34:59.299Z,11.90
2022-12-05T18:37:28.116Z,3.05
2022-12-05T18:39:56.354Z,2.85
2022-12-05T18:42:23.517Z,3.22
2022-12-05T18:44:50.283Z,2.90
2022-12-05T18:47:16.913Z,2.80
2022-12-05T18:49:43.645Z,2.70
2022-12-05T18:52:10.372Z,4.43
2022-12-05T18:54:37.433Z,2.97
2022-12-05T18:57:04.346Z,3.03
2022-12-05T18:59:30.997Z,2.50
2022-12-05T19:02:06.646Z,8.20
2022-12-05T19:04:33.588Z,5.15
2022-12-05T19:07:01.991Z,4.60
2022-12-05T19:09:31.293Z,3.85
2022-12-05T19:11:59.547Z,3.20
2022-12-05T19:14:29.502Z,2.58
2022-12-05T19:17:00.109Z,3.33
2022-12-05T19:19:28.131Z,3.20
2022-12-05T19:21:55.235Z,4.72
2022-12-05T19:24:22.217Z,5.63
2022-12-05T19:26:49.094Z,3.95
2022-12-05T19:29:16.726Z,4.28
2022-12-05T19:31:43.839Z,4.40
2022-12-05T19:34:11.331Z,3.90
2022-12-05T19:36:43.508Z,3.08
2022-12-05T19:39:19.501Z,3.80
2022-12-05T19:41:46.903Z,4.32
2022-12-05T19:44:14.508Z,4.40
2022-12-05T19:46:41.793Z,6.30
2022-12-05T19:49:11.858Z,5.45
2022-12-05T19:51:39.185Z,6.75
2022-12-05T19:54:08.615Z,5.70
2022-12-05T19:56:36.529Z,7.22
2022-12-05T19:59:05.119Z,5.32
2022-12-05T20:01:34.423Z,5.05
2022-12-05T20:04:07.446Z,5.15
2022-12-05T20:06:40.250Z,6.43
2022-12-05T20:09:09.219Z,5.75
2022-12-05T20:11:39.216Z,4.45
2022-12-05T20:14:07.289Z,13.32
2022-12-05T20:16:35.707Z,6.32
2022-12-05T20:19:03.010Z,3.92
2022-12-05T20:21:31.975Z,3.50
2022-12-05T20:24:00.777Z,3.72
2022-12-05T20:26:33.899Z,4.70
2022-12-05T20:29:00.657Z,8.05
2022-12-05T20:31:33.323Z,5.43
2022-12-05T20:34:00.309Z,4.15
2022-12-05T20:36:30.252Z,4.72
2022-12-05T20:38:59.251Z,4.03
2022-12-05T20:41:26.934Z,3.95
2022-12-05T20:43:56.335Z,10.07
2022-12-05T20:46:23.582Z,10.10
2022-12-05T20:48:52.122Z,4.85
2022-12-05T20:51:22.326Z,4.00
2022-12-05T20:53:49.355Z,3.30
2022-12-05T20:56:28.195Z,4.15
2022-12-05T20:58:57.060Z,3.78
2022-12-05T21:01:25.209Z,5.22
2022-12-05T21:03:52.940Z,4.00
2022-12-05T21:06:31.651Z,4.10
2022-12-05T21:09:00.277Z,3.80
2022-12-05T21:11:28.365Z,3.40
2022-12-05T21:13:56.884Z,3.75
2022-12-05T21:16:24.291Z,2.72
2022-12-05T21:18:52.365Z,2.80
2022-12-05T21:21:21.544Z,3.28
2022-12-05T21:23:53.539Z,3.10
2022-12-05T21:26:22.085Z,2.50
2022-12-05T21:28:49.464Z,2.97
2022-12-05T21:31:25.758Z,2.60
2022-12-05T21:33:55.751Z,2.72
2022-12-05T21:36:24.442Z,2.45
2022-12-05T21:38:55.872Z,2.33
2022-12-05T21:41:23.695Z,2.42
2022-12-05T21:43:54.603Z,2.45
2022-12-05T21:46:22.115Z,2.00
2022-12-05T21:48:48.791Z,2.10
2022-12-05T21:51:15.602Z,2.60
2022-12-05T21:53:42.624Z,1.95
2022-12-05T21:56:12.112Z,2.05
2022-12-05T21:58:42.265Z,1.70
2022-12-05T22:01:10.790Z,1.90
2022-12-05T22:03:38.070Z,3.72
2022-12-05T22:06:07.349Z,1.70
2022-12-05T22:08:34.559Z,2.13
2022-12-05T22:11:08.638Z,1.40
2022-12-05T22:13:35.693Z,1.70
2022-12-05T22:16:03.430Z,3.58
2022-12-05T22:18:30.600Z,1.80
2022-12-05T22:21:05.250Z,2.20
2022-12-05T22:23:33.368Z,2.00
2022-12-05T22:26:02.575Z,2.80
2022-12-05T22:28:30.372Z,2.30
2022-12-05T22:30:59.343Z,2.35
2022-12-05T22:33:26.826Z,1.85
2022-12-05T22:35:56.647Z,2.30
2022-12-05T22:38:29.133Z,2.55
2022-12-05T22:41:01.670Z,2.20
2022-12-05T22:43:30.441Z,1.60
2022-12-05T22:45:57.310Z,1.70
2022-12-05T22:48:24.641Z,1.95
2022-12-05T22:50:53.257Z,2.00
2022-12-05T22:53:21.993Z,2.28
2022-12-05T22:55:48.834Z,2.20
2022-12-05T22:58:16.184Z,2.65
2022-12-05T23:00:43.323Z,2.65
2022-12-05T23:03:10.503Z,2.67
2022-12-05T23:05:42.352Z,2.20
2022-12-05T23:08:10.338Z,2.35
2022-12-05T23:10:39.082Z,2.20
2022-12-05T23:13:07.451Z,2.70
2022-12-05T23:15:37.246Z,2.83
2022-12-05T23:18:04.888Z,5.45
2022-12-05T23:20:31.677Z,12.90
2022-12-05T23:22:58.426Z,15.43
2022-12-05T23:25:25.147Z,4.43
2022-12-05T23:27:51.871Z,2.92
2022-12-05T23:30:18.742Z,2.55
2022-12-05T23:32:45.577Z,2.63
2022-12-05T23:35:12.297Z,2.97
2022-12-05T23:37:39.065Z,2.67
2022-12-05T23:40:06.532Z,3.08
2022-12-05T23:42:33.237Z,2.40
2022-12-05T23:44:59.977Z,2.85
2022-12-05T23:47:26.992Z,2.70
2022-12-05T23:49:53.715Z,2.88
2022-12-05T23:52:20.399Z,2.70
2022-12-05T23:54:47.167Z,2.72
2022-12-05T23:57:17.536Z,3.03
2022-12-05T23:59:45.546Z,3.35
